createdAt,value
2023-04-10T00:02:11.260Z,100139.28
2023-04-10T00:04:38.401Z,100126.78
2023-04-10T00:07:05.605Z,100126.63
2023-04-10T00:09:32.323Z,100127.34
2023-04-10T00:11:59.632Z,100141.59
2023-04-10T00:14:26.705Z,100116.13
2023-04-10T00:16:53.543Z,100122.28
2023-04-10T00:19:20.481Z,100050.84
2023-04-10T00:21:47.141Z,100037.09
2023-04-10T00:24:14.156Z,100080.97
2023-04-10T00:26:40.896Z,100108.59
2023-04-10T00:29:08.504Z,100083.22
2023-04-10T00:31:35.487Z,100073.72
2023-04-10T00:34:02.261Z,100068.13
2023-04-10T00:36:29.084Z,100051.09
2023-04-10T00:38:55.918Z,100076.63
2023-04-10T00:41:24.087Z,100076.91
2023-04-10T00:43:51.377Z,100041.63
2023-04-10T00:46:18.715Z,100059.13
2023-04-10T00:48:45.548Z,100030.22
2023-04-10T00:51:12.462Z,100061.00
2023-04-10T00:53:39.276Z,100075.09
2023-04-10T00:56:07.586Z,100066.13
2023-04-10T00:58:34.268Z,100030.66
2023-04-10T01:01:01.228Z,100050.25
2023-04-10T01:03:28.213Z,100060.25
2023-04-10T01:06:01.343Z,100074.31
2023-04-10T01:08:55.869Z,100050.16
2023-04-10T01:11:25.655Z,100062.25
2023-04-10T01:14:29.747Z,100066.59
2023-04-10T01:17:13.161Z,100047.59
2023-04-10T01:19:52.208Z,100049.84
2023-04-10T01:22:25.072Z,100055.72
2023-04-10T01:24:57.759Z,100047.03
2023-04-10T01:28:01.715Z,100055.69
2023-04-10T01:30:28.790Z,100036.78
2023-04-10T01:32:59.514Z,100045.03
2023-04-10T01:35:29.542Z,100025.75
2023-04-10T01:38:00.053Z,100019.44
2023-04-10T01:40:27.797Z,100025.38
2023-04-10T01:42:57.060Z,99993.75
2023-04-10T01:45:29.043Z,99997.72
2023-04-10T01:47:56.706Z,100005.03
2023-04-10T01:50:24.663Z,100001.91
2023-04-10T01:52:54.973Z,99981.81
2023-04-10T01:55:22.143Z,99974.66
2023-04-10T01:57:49.645Z,99950.84
2023-04-10T02:00:17.181Z,99962.47
2023-04-10T02:02:44.799Z,99956.41
2023-04-10T02:05:12.244Z,99965.22
2023-04-10T02:08:00.459Z,99966.91
2023-04-10T02:10:37.371Z,99955.06
2023-04-10T02:13:09.542Z,99933.19
2023-04-10T02:15:37.228Z,99939.25
2023-04-10T02:18:05.160Z,99940.03
2023-04-10T02:20:32.590Z,99912.75
2023-04-10T02:23:03.921Z,99904.53
2023-04-10T02:25:34.363Z,99913.63
2023-04-10T02:28:08.242Z,99895.53
2023-04-10T02:30:36.082Z,99895.00
2023-04-10T02:33:03.024Z,99860.75
2023-04-10T02:35:29.895Z,99883.13
2023-04-10T02:37:56.772Z,99881.63
2023-04-10T02:40:24.106Z,99873.41
2023-04-10T02:42:50.950Z,99860.81
2023-04-10T02:45:17.706Z,99858.16
2023-04-10T02:47:44.477Z,99850.59
2023-04-10T02:50:12.085Z,99817.66
2023-04-10T02:52:39.149Z,99779.38
2023-04-10T02:55:06.486Z,99819.00
2023-04-10T02:57:33.230Z,99829.69
2023-04-10T03:00:00.184Z,99829.53
2023-04-10T03:02:27.304Z,99815.13
2023-04-10T03:04:54.124Z,99812.22
2023-04-10T03:07:20.910Z,99794.28
2023-04-10T03:09:47.643Z,99791.81
2023-04-10T03:12:14.327Z,99805.44
2023-04-10T03:14:41.658Z,99796.09
2023-04-10T03:17:08.442Z,99792.19
2023-04-10T03:19:35.067Z,99741.03
2023-04-10T03:22:02.419Z,99745.91
2023-04-10T03:24:29.206Z,99778.91
2023-04-10T03:26:57.274Z,99777.47
2023-04-10T03:29:24.080Z,99764.78
2023-04-10T03:31:51.182Z,99757.50
2023-04-10T03:34:18.589Z,99762.72
2023-04-10T03:36:45.333Z,99733.31
2023-04-10T03:39:12.153Z,99733.75
2023-04-10T03:41:38.853Z,99723.06
2023-04-10T03:44:05.551Z,99723.50
2023-04-10T03:46:32.221Z,99696.19
2023-04-10T03:48:58.912Z,99664.41
2023-04-10T03:51:26.912Z,99676.97
2023-04-10T03:53:53.954Z,99702.56
2023-04-10T03:56:20.833Z,99685.88
2023-04-10T03:58:47.584Z,99670.75
2023-04-10T04:01:14.252Z,99666.72
2023-04-10T04:03:41.140Z,99679.56
2023-04-10T04:06:08.274Z,99652.91
2023-04-10T04:08:36.488Z,99662.84
2023-04-10T04:11:03.229Z,99660.97
2023-04-10T04:13:29.935Z,99646.78
2023-04-10T04:15:56.694Z,99616.03
2023-04-10T04:18:23.323Z,99599.63
2023-04-10T04:20:50.017Z,99578.28
2023-04-10T04:23:17.801Z,99589.41
2023-04-10T04:25:44.475Z,99620.91
2023-04-10T04:28:13.776Z,99623.16
2023-04-10T04:30:40.416Z,99614.09
2023-04-10T04:33:07.216Z,99593.09
2023-04-10T04:35:34.060Z,99586.66
2023-04-10T04:38:00.883Z,99577.44
2023-04-10T04:40:27.886Z,99573.69
2023-04-10T04:42:55.024Z,99571.53
2023-04-10T04:45:21.985Z,99510.16
2023-04-10T04:47:48.913Z,99585.28
2023-04-10T04:50:15.806Z,99558.56
2023-04-10T04:52:44.348Z,99554.09
2023-04-10T04:55:11.078Z,99551.38
2023-04-10T04:57:37.817Z,99562.97
2023-04-10T05:00:04.953Z,99542.84
2023-04-10T05:02:31.811Z,99517.81
2023-04-10T05:04:58.707Z,99554.50
2023-04-10T05:07:25.572Z,99524.59
2023-04-10T05:09:52.467Z,99511.63
2023-04-10T05:12:19.212Z,99533.75
2023-04-10T05:14:47.807Z,99517.22
2023-04-10T05:17:15.709Z,99503.03
2023-04-10T05:19:42.649Z,99504.44
2023-04-10T05:22:09.312Z,99504.38
2023-04-10T05:24:36.085Z,99516.53
2023-04-10T05:27:03.268Z,99439.16
2023-04-10T05:29:29.960Z,99499.34
2023-04-10T05:31:56.692Z,99468.75
2023-04-10T05:34:23.633Z,99473.84
2023-04-10T05:36:50.333Z,99475.75
2023-04-10T05:39:17.477Z,99483.91
2023-04-10T05:41:44.363Z,99485.72
2023-04-10T05:44:11.018Z,99428.41
2023-04-10T05:46:37.736Z,99414.28
2023-04-10T05:49:04.507Z,99456.22
2023-04-10T05:51:32.130Z,99452.97
2023-04-10T05:53:58.863Z,99444.13
2023-04-10T05:56:25.827Z,99437.69
2023-04-10T05:58:52.791Z,99439.25
2023-04-10T06:01:19.712Z,99417.38
2023-04-10T06:03:46.647Z,99423.41
2023-04-10T06:06:13.559Z,99426.44
2023-04-10T06:08:40.779Z,99397.25
2023-04-10T06:11:07.827Z,99414.81
2023-04-10T06:13:34.574Z,99343.84
2023-04-10T06:16:01.442Z,99329.56
2023-04-10T06:18:28.195Z,99322.72
2023-04-10T06:20:56.848Z,99399.00
2023-04-10T06:23:23.860Z,99343.75
2023-04-10T06:25:50.661Z,99348.88
2023-04-10T06:28:17.396Z,99319.97
2023-04-10T06:30:44.047Z,99305.31
2023-04-10T06:33:11.278Z,99349.34
2023-04-10T06:35:38.927Z,99312.31
2023-04-10T06:38:05.680Z,99303.09
2023-04-10T06:40:34.224Z,99298.88
2023-04-10T06:43:01.431Z,99305.44
2023-04-10T06:45:28.210Z,99260.47
2023-04-10T06:47:57.918Z,99297.34
2023-04-10T06:50:24.657Z,99322.13
2023-04-10T06:52:53.346Z,99282.19
2023-04-10T06:55:22.007Z,99288.06
2023-04-10T06:57:48.752Z,99311.81
2023-04-10T07:00:15.762Z,99258.69
2023-04-10T07:02:46.135Z,99262.88
2023-04-10T07:05:12.821Z,99258.09
2023-04-10T07:07:39.563Z,99256.22
2023-04-10T07:10:07.294Z,99263.13
2023-04-10T07:12:34.535Z,99291.28
2023-04-10T07:15:01.339Z,99260.47
2023-04-10T07:17:28.061Z,99288.69
2023-04-10T07:19:54.763Z,99220.31
2023-04-10T07:22:21.443Z,99238.41
2023-04-10T07:24:48.536Z,99237.94
2023-04-10T07:27:15.493Z,99237.44
2023-04-10T07:29:42.172Z,99269.25
2023-04-10T07:32:09.038Z,99244.00
2023-04-10T07:34:35.816Z,99223.53
2023-04-10T07:37:02.519Z,99173.16
2023-04-10T07:39:29.218Z,99237.31
2023-04-10T07:41:58.213Z,99176.34
2023-04-10T07:44:26.824Z,99239.13
2023-04-10T07:46:54.128Z,99227.81
2023-04-10T07:49:20.812Z,99204.59
2023-04-10T07:51:47.554Z,99251.34
2023-04-10T07:54:14.333Z,99209.94
2023-04-10T07:56:41.149Z,99196.50
2023-04-10T07:59:08.308Z,99222.97
2023-04-10T08:01:35.085Z,99227.50
2023-04-10T08:04:04.773Z,99256.22
2023-04-10T08:06:32.883Z,99221.81
2023-04-10T08:08:59.682Z,99251.53
2023-04-10T08:11:29.628Z,99275.56
2023-04-10T08:13:58.925Z,99263.13
2023-04-10T08:16:26.682Z,99226.66
2023-04-10T08:18:54.797Z,99231.81
2023-04-10T08:21:22.879Z,99261.16
2023-04-10T08:23:57.941Z,99211.31
2023-04-10T08:26:25.924Z,99215.00
2023-04-10T08:28:54.394Z,99224.13
2023-04-10T08:31:22.924Z,99199.75
2023-04-10T08:33:59.756Z,99224.50
2023-04-10T08:36:28.409Z,99228.50
2023-04-10T08:38:55.136Z,99208.75
2023-04-10T08:41:21.939Z,99159.50
2023-04-10T08:43:50.035Z,99194.06
2023-04-10T08:46:18.146Z,99243.50
2023-04-10T08:48:53.278Z,99243.94
2023-04-10T08:51:26.023Z,99250.94
2023-04-10T08:53:58.613Z,99256.06
2023-04-10T08:56:26.270Z,99208.47
2023-04-10T08:58:53.555Z,99245.44
2023-04-10T09:01:21.794Z,99232.25
2023-04-10T09:03:49.089Z,99234.13
2023-04-10T09:06:15.883Z,99259.22
2023-04-10T09:08:42.601Z,99242.09
2023-04-10T09:11:09.475Z,99255.25
2023-04-10T09:13:41.283Z,99188.22
2023-04-10T09:16:09.072Z,99233.72
2023-04-10T09:18:53.752Z,99262.50
2023-04-10T09:21:21.857Z,99212.22
2023-04-10T09:23:49.600Z,99257.25
2023-04-10T09:26:25.206Z,99254.38
2023-04-10T09:29:07.928Z,99186.25
2023-04-10T09:31:37.053Z,99210.03
2023-04-10T09:34:23.537Z,99127.84
2023-04-10T09:36:58.695Z,99082.75
2023-04-10T09:39:43.048Z,99209.25
2023-04-10T09:42:11.730Z,99225.97
2023-04-10T09:44:39.665Z,99204.00
2023-04-10T09:47:15.494Z,99225.97
2023-04-10T09:49:49.001Z,99181.53
2023-04-10T09:52:27.403Z,99166.59
2023-04-10T09:54:56.411Z,99199.13
2023-04-10T09:57:24.424Z,99172.78
2023-04-10T09:59:56.065Z,99180.44
2023-04-10T10:02:24.941Z,99158.09
2023-04-10T10:04:52.973Z,99185.19
2023-04-10T10:07:21.625Z,99207.47
2023-04-10T10:09:50.442Z,99177.09
2023-04-10T10:12:23.170Z,99151.78
2023-04-10T10:14:54.313Z,99185.25
2023-04-10T10:17:24.389Z,99118.94
2023-04-10T10:20:04.922Z,99171.84
2023-04-10T10:22:32.670Z,99158.16
2023-04-10T10:25:00.997Z,99160.00
2023-04-10T10:27:29.300Z,99108.53
2023-04-10T10:30:00.909Z,99074.09
2023-04-10T10:32:28.647Z,99104.47
2023-04-10T10:34:56.497Z,99137.53
2023-04-10T10:37:23.986Z,99139.59
2023-04-10T10:40:02.486Z,99131.03
2023-04-10T10:42:42.881Z,99153.59
2023-04-10T10:45:17.081Z,99137.88
2023-04-10T10:47:53.857Z,99154.25
2023-04-10T10:50:24.278Z,99089.03
2023-04-10T10:52:57.715Z,99134.13
2023-04-10T10:55:37.161Z,99129.84
2023-04-10T10:58:05.783Z,99100.59
2023-04-10T11:00:52.704Z,99099.59
2023-04-10T11:03:19.546Z,99120.91
2023-04-10T11:05:51.273Z,99122.81
2023-04-10T11:08:18.524Z,99092.94
2023-04-10T11:11:08.451Z,99066.84
2023-04-10T11:13:39.901Z,99109.06
2023-04-10T11:16:10.208Z,99088.97
2023-04-10T11:18:55.947Z,99133.25
2023-04-10T11:21:29.774Z,99143.75
2023-04-10T11:23:56.500Z,99122.34
2023-04-10T11:26:35.471Z,99107.56
2023-04-10T11:29:05.760Z,99117.88
2023-04-10T11:31:34.141Z,99105.97
2023-04-10T11:34:02.506Z,99113.00
2023-04-10T11:36:29.694Z,99090.69
2023-04-10T11:39:10.506Z,99112.03
2023-04-10T11:41:39.211Z,99088.13
2023-04-10T11:44:07.456Z,99120.56
2023-04-10T11:46:53.220Z,99110.50
2023-04-10T11:49:28.240Z,99119.13
2023-04-10T11:51:55.283Z,99083.56
2023-04-10T11:54:24.367Z,99102.88
2023-04-10T11:57:05.759Z,99084.09
2023-04-10T11:59:34.205Z,99108.97
2023-04-10T12:02:09.714Z,99107.69
2023-04-10T12:04:37.692Z,99084.44
2023-04-10T12:07:04.750Z,99055.69
2023-04-10T12:09:31.902Z,99030.28
2023-04-10T12:12:06.767Z,99072.88
2023-04-10T12:14:38.329Z,99071.31
2023-04-10T12:17:07.327Z,99077.72
2023-04-10T12:19:35.050Z,99086.34
2023-04-10T12:22:03.210Z,99081.69
2023-04-10T12:24:45.317Z,99045.19
2023-04-10T12:27:26.767Z,99037.72
2023-04-10T12:29:56.018Z,98998.81
2023-04-10T12:32:23.562Z,99027.69
2023-04-10T12:34:57.664Z,99064.72
2023-04-10T12:37:26.001Z,99035.84
2023-04-10T12:39:52.795Z,99017.34
2023-04-10T12:42:22.622Z,99048.16
2023-04-10T12:44:57.318Z,99059.28
2023-04-10T12:47:25.232Z,99004.59
2023-04-10T12:50:08.218Z,99025.94
2023-04-10T12:52:36.170Z,99045.63
2023-04-10T12:55:12.234Z,99054.84
2023-04-10T12:57:40.031Z,99009.81
2023-04-10T13:00:09.806Z,99054.75
2023-04-10T13:02:38.040Z,99010.44
2023-04-10T13:05:06.474Z,99036.22
2023-04-10T13:07:33.526Z,99030.56
2023-04-10T13:10:00.455Z,98981.25
2023-04-10T13:12:27.337Z,99017.56
2023-04-10T13:14:54.657Z,99039.47
2023-04-10T13:17:22.139Z,99002.88
2023-04-10T13:19:49.153Z,98988.44
2023-04-10T13:22:15.991Z,99027.56
2023-04-10T13:24:43.502Z,99044.16
2023-04-10T13:27:11.192Z,98997.16
2023-04-10T13:29:41.882Z,99009.63
2023-04-10T13:32:08.888Z,99022.53
2023-04-10T13:34:35.950Z,99030.91
2023-04-10T13:37:02.836Z,98983.81
2023-04-10T13:39:31.354Z,98966.59
2023-04-10T13:42:02.259Z,99001.91
2023-04-10T13:44:29.049Z,98976.41
2023-04-10T13:46:58.355Z,98974.38
2023-04-10T13:49:25.178Z,98978.50
2023-04-10T13:51:51.943Z,99000.56
2023-04-10T13:54:18.691Z,98954.53
2023-04-10T13:56:46.669Z,98936.09
2023-04-10T13:59:13.719Z,98952.69
2023-04-10T14:01:40.556Z,98936.66
2023-04-10T14:04:07.558Z,99001.66
2023-04-10T14:06:34.451Z,98989.50
2023-04-10T14:09:01.296Z,98981.44
2023-04-10T14:11:28.093Z,98943.03
2023-04-10T14:13:55.084Z,98934.19
2023-04-10T14:16:21.898Z,98965.84
2023-04-10T14:18:48.678Z,98943.81
2023-04-10T14:21:15.420Z,98942.25
2023-04-10T14:23:43.049Z,98984.97
2023-04-10T14:26:09.957Z,98932.91
2023-04-10T14:28:36.759Z,98948.06
2023-04-10T14:31:04.983Z,98985.97
2023-04-10T14:33:32.253Z,98958.19
2023-04-10T14:35:59.126Z,98955.19
2023-04-10T14:38:26.072Z,98978.72
2023-04-10T14:40:54.044Z,98986.31
2023-04-10T14:43:21.032Z,98911.56
2023-04-10T14:45:47.881Z,98971.69
2023-04-10T14:48:14.941Z,98919.03
2023-04-10T14:50:41.798Z,98930.84
2023-04-10T14:53:10.030Z,98907.97
2023-04-10T14:55:37.480Z,98951.25
2023-04-10T14:58:06.771Z,98950.81
2023-04-10T15:00:43.828Z,98931.78
2023-04-10T15:03:10.687Z,98952.72
2023-04-10T15:05:38.212Z,98948.38
2023-04-10T15:08:08.015Z,98938.34
2023-04-10T15:10:37.580Z,98944.78
2023-04-10T15:13:11.858Z,98902.50
2023-04-10T15:15:44.346Z,98944.13
2023-04-10T15:18:11.168Z,98844.59
2023-04-10T15:20:39.134Z,98907.84
2023-04-10T15:23:05.954Z,98925.31
2023-04-10T15:25:33.631Z,98941.88
2023-04-10T15:28:02.020Z,98902.97
2023-04-10T15:30:28.948Z,98947.66
2023-04-10T15:32:55.793Z,98910.53
2023-04-10T15:35:25.028Z,98933.72
2023-04-10T15:37:51.810Z,98901.66
2023-04-10T15:40:22.053Z,98908.78
2023-04-10T15:42:49.236Z,98946.59
2023-04-10T15:45:19.186Z,98890.75
2023-04-10T15:47:49.014Z,98917.75
2023-04-10T15:50:19.429Z,98858.31
2023-04-10T15:52:48.814Z,98884.16
2023-04-10T15:55:16.399Z,98963.53
2023-04-10T15:57:43.147Z,98913.75
2023-04-10T16:00:10.434Z,98918.09
2023-04-10T16:02:37.415Z,98903.69
2023-04-10T16:05:04.588Z,98913.97
2023-04-10T16:07:31.500Z,98889.91
2023-04-10T16:09:58.529Z,98874.03
2023-04-10T16:12:25.260Z,98912.72
2023-04-10T16:14:51.949Z,98914.31
2023-04-10T16:17:18.655Z,98899.09
2023-04-10T16:19:45.350Z,98935.25
2023-04-10T16:22:12.028Z,98893.44
2023-04-10T16:24:38.756Z,98868.63
2023-04-10T16:27:08.270Z,98912.75
2023-04-10T16:29:35.299Z,98924.19
2023-04-10T16:32:02.085Z,98871.69
2023-04-10T16:34:28.835Z,98880.13
2023-04-10T16:36:55.499Z,98857.41
2023-04-10T16:39:22.513Z,98895.38
2023-04-10T16:41:49.189Z,98930.50
2023-04-10T16:44:15.937Z,98907.88
2023-04-10T16:46:42.690Z,98869.28
2023-04-10T16:49:09.577Z,98866.44
2023-04-10T16:51:38.710Z,98927.41
2023-04-10T16:54:14.846Z,98915.34
2023-04-10T16:56:44.997Z,98889.59
2023-04-10T16:59:12.105Z,98859.06
2023-04-10T17:01:40.056Z,98884.84
2023-04-10T17:04:08.211Z,98878.81
2023-04-10T17:06:36.110Z,98915.97
2023-04-10T17:09:02.856Z,98873.78
2023-04-10T17:11:29.706Z,98910.22
2023-04-10T17:13:56.436Z,98895.78
2023-04-10T17:16:23.217Z,98931.22
2023-04-10T17:18:49.988Z,98898.44
2023-04-10T17:21:16.868Z,98920.22
2023-04-10T17:23:43.581Z,98936.13
2023-04-10T17:26:15.388Z,98887.25
2023-04-10T17:28:46.713Z,98971.03
2023-04-10T17:31:14.535Z,98923.50
2023-04-10T17:33:42.028Z,98948.25
2023-04-10T17:36:10.303Z,98922.69
2023-04-10T17:38:37.931Z,98890.31
2023-04-10T17:41:05.957Z,98898.59
2023-04-10T17:43:33.287Z,98954.63
2023-04-10T17:46:00.674Z,98965.47
2023-04-10T17:48:27.797Z,98940.97
2023-04-10T17:50:54.639Z,98942.16
2023-04-10T17:53:21.368Z,98928.38
2023-04-10T17:55:48.076Z,98893.75
2023-04-10T17:58:14.816Z,98940.47
2023-04-10T18:00:43.006Z,98892.66
2023-04-10T18:03:10.514Z,98964.22
2023-04-10T18:05:38.766Z,98931.00
2023-04-10T18:08:06.541Z,98968.88
2023-04-10T18:10:33.238Z,98900.22
2023-04-10T18:12:59.990Z,98916.28
2023-04-10T18:15:27.966Z,98978.63
2023-04-10T18:17:55.110Z,98941.94
2023-04-10T18:20:22.606Z,98971.47
2023-04-10T18:22:49.345Z,98926.03
2023-04-10T18:25:16.741Z,98991.03
2023-04-10T18:27:51.591Z,98991.75
2023-04-10T18:30:31.014Z,98902.78
2023-04-10T18:32:57.710Z,98962.78
2023-04-10T18:35:24.401Z,98923.25
2023-04-10T18:37:51.082Z,98978.16
2023-04-10T18:40:17.841Z,98956.44
2023-04-10T18:42:44.553Z,98962.59
2023-04-10T18:45:13.121Z,98913.41
2023-04-10T18:47:39.909Z,98944.09
2023-04-10T18:50:09.691Z,98917.34
2023-04-10T18:52:36.378Z,98953.44
2023-04-10T18:55:03.991Z,98948.97
2023-04-10T18:57:30.678Z,98950.94
2023-04-10T18:59:57.949Z,99013.19
2023-04-10T19:02:24.992Z,99010.06
2023-04-10T19:04:53.767Z,98987.66
2023-04-10T19:07:20.973Z,99002.34
2023-04-10T19:09:48.024Z,99006.72
2023-04-10T19:12:14.799Z,98947.91
2023-04-10T19:14:41.556Z,98939.22
2023-04-10T19:17:08.983Z,98953.34
2023-04-10T19:19:35.734Z,98951.84
2023-04-10T19:22:02.480Z,98985.16
2023-04-10T19:24:30.859Z,98983.47
2023-04-10T19:26:57.530Z,98971.31
2023-04-10T19:29:24.282Z,98975.69
2023-04-10T19:31:51.386Z,99005.09
2023-04-10T19:34:18.109Z,99005.91
2023-04-10T19:36:44.799Z,99013.19
2023-04-10T19:39:11.613Z,98969.34
2023-04-10T19:41:42.168Z,98959.06
2023-04-10T19:44:09.134Z,99001.31
2023-04-10T19:46:35.934Z,98984.44
2023-04-10T19:49:02.699Z,98971.06
2023-04-10T19:51:29.388Z,99039.63
2023-04-10T19:53:58.006Z,99036.06
2023-04-10T19:56:26.693Z,98976.59
2023-04-10T19:58:53.796Z,98967.28
2023-04-10T20:01:20.652Z,99002.91
2023-04-10T20:03:47.554Z,99013.25
2023-04-10T20:06:18.412Z,99010.66
2023-04-10T20:08:45.726Z,98942.94
2023-04-10T20:11:12.422Z,99008.44
2023-04-10T20:13:40.955Z,99003.22
2023-04-10T20:16:08.569Z,98979.50
2023-04-10T20:18:36.368Z,99043.25
2023-04-10T20:21:04.728Z,99037.53
2023-04-10T20:23:32.906Z,98994.28
2023-04-10T20:25:59.647Z,99007.34
2023-04-10T20:28:26.347Z,99028.88
2023-04-10T20:30:53.188Z,98950.13
2023-04-10T20:33:19.944Z,98976.25
2023-04-10T20:35:46.726Z,98962.91
2023-04-10T20:38:13.628Z,98993.63
2023-04-10T20:40:40.358Z,99002.00
2023-04-10T20:43:11.414Z,99017.47
2023-04-10T20:45:39.157Z,99019.28
2023-04-10T20:48:06.411Z,99036.44
2023-04-10T20:50:33.201Z,99003.69
2023-04-10T20:53:00.188Z,99020.09
2023-04-10T20:55:26.886Z,99017.00
2023-04-10T20:57:53.745Z,98993.97
2023-04-10T21:00:20.932Z,99011.03
2023-04-10T21:02:47.815Z,99021.13
2023-04-10T21:05:15.080Z,98969.06
2023-04-10T21:07:42.125Z,98996.59
2023-04-10T21:10:08.986Z,99013.22
2023-04-10T21:12:35.714Z,98968.69
2023-04-10T21:15:02.711Z,98954.31
2023-04-10T21:17:31.637Z,98998.81
2023-04-10T21:19:59.596Z,99010.38
2023-04-10T21:22:29.114Z,98976.25
2023-04-10T21:24:56.208Z,98979.59
2023-04-10T21:27:22.951Z,98975.50
2023-04-10T21:29:49.746Z,98990.78
2023-04-10T21:32:16.627Z,99026.53
2023-04-10T21:34:43.438Z,98972.84
2023-04-10T21:37:10.212Z,98985.09
2023-04-10T21:39:40.694Z,98971.91
2023-04-10T21:42:07.715Z,98965.38
2023-04-10T21:44:34.473Z,98972.38
2023-04-10T21:47:01.493Z,99000.88
2023-04-10T21:49:28.224Z,98973.22
2023-04-10T21:51:55.168Z,98996.91
2023-04-10T21:54:21.906Z,98939.25
2023-04-10T21:56:48.642Z,98974.03
2023-04-10T21:59:15.696Z,99019.03
2023-04-10T22:01:43.640Z,98986.19
2023-04-10T22:04:10.807Z,98999.34
2023-04-10T22:06:37.692Z,98950.63
2023-04-10T22:09:04.515Z,98973.84
2023-04-10T22:11:31.180Z,98966.03
2023-04-10T22:14:00.231Z,98997.81
2023-04-10T22:16:32.628Z,98957.44
2023-04-10T22:19:00.113Z,98936.47
2023-04-10T22:21:27.514Z,98933.78
2023-04-10T22:23:54.235Z,99011.88
2023-04-10T22:26:21.202Z,98962.31
2023-04-10T22:28:48.012Z,98947.78
2023-04-10T22:31:16.575Z,99010.22
2023-04-10T22:33:43.621Z,99003.16
2023-04-10T22:36:10.939Z,99029.22
2023-04-10T22:38:37.698Z,98985.53
2023-04-10T22:41:06.760Z,99011.16
2023-04-10T22:43:36.672Z,98991.56
2023-04-10T22:46:03.588Z,98970.22
2023-04-10T22:48:30.559Z,98948.88
2023-04-10T22:50:57.272Z,98992.84
2023-04-10T22:53:24.204Z,98993.00
2023-04-10T22:55:50.961Z,98987.78
2023-04-10T22:58:17.768Z,99009.25
2023-04-10T23:00:44.470Z,98971.84
2023-04-10T23:03:11.489Z,98979.31
2023-04-10T23:05:38.437Z,98962.19
2023-04-10T23:08:05.194Z,98982.28
2023-04-10T23:10:32.013Z,98990.84
2023-04-10T23:12:58.810Z,98985.38
2023-04-10T23:15:25.639Z,98961.34
2023-04-10T23:17:52.520Z,99007.31
2023-04-10T23:20:19.411Z,99014.75
2023-04-10T23:22:46.156Z,98937.97
2023-04-10T23:25:13.005Z,98973.44
2023-04-10T23:27:39.753Z,98941.50
2023-04-10T23:30:06.969Z,98981.34
2023-04-10T23:32:33.911Z,98998.66
2023-04-10T23:35:00.911Z,98982.09
2023-04-10T23:37:27.607Z,98957.88
2023-04-10T23:39:54.365Z,98961.00
2023-04-10T23:42:21.133Z,99014.22
2023-04-10T23:44:47.843Z,99014.75
2023-04-10T23:47:14.688Z,99049.38
2023-04-10T23:49:41.429Z,99048.38
2023-04-10T23:52:10.307Z,98990.34
2023-04-10T23:54:37.046Z,99006.03
2023-04-10T23:57:03.903Z,99031.38
2023-04-10T23:59:30.634Z,98996.97
